createdAt,value
2018-09-06T00:00:12.367Z,0.00
2018-09-06T00:01:12.556Z,0.00
2018-09-06T00:02:12.736Z,0.00
2018-09-06T00:03:12.899Z,0.00
2018-09-06T00:04:13.085Z,0.00
2018-09-06T00:05:13.246Z,0.00
2018-09-06T00:06:13.422Z,0.00
2018-09-06T00:07:13.590Z,0.00
2018-09-06T00:08:13.783Z,0.00
2018-09-06T00:09:13.956Z,0.00
2018-09-06T00:10:14.392Z,0.00
2018-09-06T00:11:14.315Z,0.00
2018-09-06T00:12:14.501Z,0.00
2018-09-06T00:13:14.677Z,0.00
2018-09-06T00:14:14.870Z,0.00
2018-09-06T00:15:15.033Z,0.00
2018-09-06T00:16:15.216Z,0.00
2018-09-06T00:17:15.393Z,0.00
2018-09-06T00:18:15.564Z,0.00
2018-09-06T00:19:15.752Z,0.00
2018-09-06T00:20:15.934Z,0.00
2018-09-06T00:21:16.111Z,0.00
2018-09-06T00:22:16.280Z,0.00
2018-09-06T00:23:16.471Z,0.00
2018-09-06T00:24:16.635Z,0.00
2018-09-06T00:25:16.814Z,0.00
2018-09-06T00:26:16.984Z,0.00
2018-09-06T00:27:17.173Z,0.00
2018-09-06T00:28:17.343Z,0.00
2018-09-06T00:29:17.749Z,0.00
2018-09-06T00:30:17.931Z,0.00
2018-09-06T00:31:17.870Z,0.00
2018-09-06T00:32:18.048Z,0.00
2018-09-06T00:33:18.233Z,0.00
2018-09-06T00:34:18.410Z,0.00
2018-09-06T00:35:18.584Z,0.00
2018-09-06T00:36:18.764Z,0.00
2018-09-06T00:37:18.930Z,0.00
2018-09-06T00:38:19.136Z,0.00
2018-09-06T00:39:19.308Z,0.00
2018-09-06T00:40:19.490Z,0.00
2018-09-06T00:41:19.663Z,0.00
2018-09-06T00:42:19.838Z,0.00
2018-09-06T00:43:20.020Z,0.00
2018-09-06T00:44:20.192Z,0.00
2018-09-06T00:45:20.370Z,0.00
2018-09-06T00:46:20.542Z,0.00
2018-09-06T00:47:20.712Z,0.00
2018-09-06T00:48:20.897Z,0.00
2018-09-06T00:49:21.083Z,0.00
2018-09-06T00:50:21.266Z,0.00
2018-09-06T00:51:21.441Z,0.00
2018-09-06T00:52:21.620Z,0.00
2018-09-06T00:53:21.790Z,0.00
2018-09-06T00:54:21.979Z,0.00
2018-09-06T00:55:22.141Z,0.00
2018-09-06T00:56:22.312Z,0.00
2018-09-06T00:57:22.489Z,0.00
2018-09-06T00:58:22.661Z,0.00
2018-09-06T00:59:22.841Z,0.00
2018-09-06T01:00:22.997Z,0.00
2018-09-06T01:01:23.174Z,0.00
2018-09-06T01:02:23.352Z,0.00
2018-09-06T01:03:23.536Z,0.00
2018-09-06T01:04:23.719Z,0.00
2018-09-06T01:05:23.886Z,0.00
2018-09-06T01:06:24.057Z,0.00
2018-09-06T01:07:24.472Z,0.00
2018-09-06T01:08:24.407Z,0.00
2018-09-06T01:09:24.577Z,0.00
2018-09-06T01:10:24.781Z,0.00
2018-09-06T01:11:24.955Z,0.00
2018-09-06T01:12:25.129Z,0.00
2018-09-06T01:13:25.313Z,0.00
2018-09-06T01:14:25.471Z,0.00
2018-09-06T01:15:25.644Z,0.00
2018-09-06T01:16:25.826Z,0.00
2018-09-06T01:17:26.251Z,0.00
2018-09-06T01:18:26.177Z,0.00
2018-09-06T01:19:26.341Z,0.00
2018-09-06T01:21:26.701Z,0.00
2018-09-06T01:22:26.866Z,0.00
2018-09-06T01:23:27.045Z,0.00
2018-09-06T01:24:27.233Z,0.00
2018-09-06T01:25:27.408Z,0.00
2018-09-06T01:26:27.581Z,0.00
2018-09-06T01:27:28.020Z,0.00
2018-09-06T01:28:27.924Z,0.00
2018-09-06T01:29:28.094Z,0.00
2018-09-06T01:30:28.283Z,0.00
2018-09-06T01:31:28.456Z,0.00
2018-09-06T01:32:28.638Z,0.00
2018-09-06T01:33:28.817Z,0.00
2018-09-06T01:34:29.007Z,0.00
2018-09-06T01:35:29.184Z,0.00
2018-09-06T01:36:29.360Z,0.00
2018-09-06T01:37:29.534Z,0.00
2018-09-06T01:38:29.748Z,0.00
2018-09-06T01:39:29.899Z,0.00
2018-09-06T01:40:30.081Z,0.00
2018-09-06T01:41:30.255Z,0.00
2018-09-06T01:42:30.437Z,0.00
2018-09-06T01:43:30.615Z,0.00
2018-09-06T01:44:30.796Z,0.00
2018-09-06T01:45:30.962Z,0.00
2018-09-06T01:46:31.149Z,0.00
2018-09-06T01:47:31.337Z,0.00
2018-09-06T01:48:31.521Z,0.00
2018-09-06T01:49:31.704Z,0.00
2018-09-06T01:50:31.942Z,0.00
2018-09-06T01:51:32.064Z,0.00
2018-09-06T01:52:32.247Z,0.00
2018-09-06T01:53:32.433Z,0.00
2018-09-06T01:54:32.606Z,0.00
2018-09-06T01:55:32.783Z,0.00
2018-09-06T01:56:32.960Z,0.00
2018-09-06T01:57:33.147Z,0.00
2018-09-06T01:58:33.317Z,0.00
2018-09-06T01:59:33.505Z,0.00
2018-09-06T02:00:33.685Z,0.00
2018-09-06T02:01:33.856Z,0.00
2018-09-06T02:02:34.034Z,0.00
2018-09-06T02:03:34.215Z,0.00
2018-09-06T02:04:34.400Z,0.00
2018-09-06T02:05:34.580Z,0.00
2018-09-06T02:06:34.751Z,0.00
2018-09-06T02:07:34.929Z,0.00
2018-09-06T02:08:35.109Z,0.00
2018-09-06T02:09:35.287Z,0.00
2018-09-06T02:10:35.468Z,0.00
2018-09-06T02:11:35.646Z,0.00
2018-09-06T02:12:35.819Z,0.00
2018-09-06T02:13:36.003Z,0.00
2018-09-06T02:15:36.357Z,0.00
2018-09-06T02:16:36.536Z,0.00
2018-09-06T02:17:36.714Z,0.00
2018-09-06T02:18:36.893Z,0.00
2018-09-06T02:19:37.076Z,0.00
2018-09-06T02:20:37.250Z,0.00
2018-09-06T02:21:37.435Z,0.00
2018-09-06T02:22:37.619Z,0.00
2018-09-06T02:23:37.791Z,0.00
2018-09-06T02:24:38.315Z,0.00
2018-09-06T02:25:38.142Z,0.00
2018-09-06T02:26:38.335Z,0.00
2018-09-06T02:27:38.500Z,0.00
2018-09-06T02:28:38.675Z,0.00
2018-09-06T02:29:38.855Z,0.00
2018-09-06T02:30:39.034Z,0.00
2018-09-06T02:31:39.214Z,0.00
2018-09-06T02:32:39.398Z,0.00
2018-09-06T02:33:39.576Z,0.00
2018-09-06T02:34:39.756Z,0.00
2018-09-06T02:35:39.932Z,0.00
2018-09-06T02:36:40.107Z,0.00
2018-09-06T02:37:40.286Z,0.00
2018-09-06T02:38:40.467Z,0.00
2018-09-06T02:39:40.644Z,0.00
2018-09-06T02:40:40.822Z,0.00
2018-09-06T02:41:40.999Z,0.00
2018-09-06T02:42:41.180Z,0.00
2018-09-06T02:43:41.359Z,0.00
2018-09-06T02:44:41.537Z,0.00
2018-09-06T02:45:41.720Z,0.00
2018-09-06T02:46:41.904Z,0.00
2018-09-06T02:47:42.091Z,0.00
2018-09-06T02:48:42.544Z,0.00
2018-09-06T02:49:42.435Z,0.00
2018-09-06T02:50:42.617Z,0.00
2018-09-06T02:51:42.788Z,0.00
2018-09-06T02:52:42.979Z,0.00
2018-09-06T02:53:43.181Z,0.00
2018-09-06T02:54:43.332Z,0.00
2018-09-06T02:55:43.504Z,0.00
2018-09-06T02:56:43.685Z,0.00
2018-09-06T02:57:43.867Z,0.00
2018-09-06T02:58:44.054Z,0.00
2018-09-06T02:59:44.226Z,0.00
2018-09-06T03:00:44.413Z,0.00
2018-09-06T03:01:44.591Z,0.00
2018-09-06T03:02:44.762Z,0.00
2018-09-06T03:03:44.942Z,0.00
2018-09-06T03:04:45.126Z,0.00
2018-09-06T03:05:45.302Z,0.00
2018-09-06T03:06:45.480Z,0.00
2018-09-06T03:07:45.653Z,0.00
2018-09-06T03:09:46.006Z,0.00
2018-09-06T03:10:46.179Z,0.00
2018-09-06T03:11:46.361Z,0.00
2018-09-06T03:12:46.542Z,0.00
2018-09-06T03:13:46.721Z,0.00
2018-09-06T03:14:46.894Z,0.00
2018-09-06T03:15:47.082Z,0.00
2018-09-06T03:16:47.261Z,0.00
2018-09-06T03:17:47.437Z,0.00
2018-09-06T03:18:47.617Z,0.00
2018-09-06T03:19:47.797Z,0.00
2018-09-06T03:20:47.982Z,0.00
2018-09-06T03:21:48.148Z,0.00
2018-09-06T03:22:48.325Z,0.00
2018-09-06T03:23:48.503Z,0.00
2018-09-06T03:24:48.681Z,0.00
2018-09-06T03:25:48.870Z,0.00
2018-09-06T03:26:49.041Z,0.00
2018-09-06T03:27:49.225Z,0.00
2018-09-06T03:28:49.399Z,0.00
2018-09-06T03:29:49.585Z,0.00
2018-09-06T03:30:49.757Z,0.00
2018-09-06T03:31:49.941Z,0.00
2018-09-06T03:32:50.108Z,0.00
2018-09-06T03:33:50.290Z,0.00
2018-09-06T03:34:50.465Z,0.00
2018-09-06T03:35:50.666Z,0.00
2018-09-06T03:36:50.823Z,0.00
2018-09-06T03:37:51.007Z,0.00
2018-09-06T03:38:51.183Z,0.00
2018-09-06T03:39:51.362Z,0.00
2018-09-06T03:40:51.541Z,0.00
2018-09-06T03:41:51.720Z,0.00
2018-09-06T03:42:51.908Z,0.00
2018-09-06T03:43:52.069Z,0.00
2018-09-06T03:44:52.250Z,0.00
2018-09-06T03:45:52.437Z,0.00
2018-09-06T03:46:52.615Z,0.00
2018-09-06T03:47:52.782Z,0.00
2018-09-06T03:48:52.964Z,0.00
2018-09-06T03:49:53.142Z,0.00
2018-09-06T03:50:53.319Z,0.00
2018-09-06T03:51:53.502Z,0.00
2018-09-06T03:52:53.676Z,0.00
2018-09-06T03:53:53.851Z,0.00
2018-09-06T03:54:54.028Z,0.00
2018-09-06T03:55:54.227Z,0.00
2018-09-06T03:56:54.387Z,0.00
2018-09-06T03:57:54.567Z,0.00
2018-09-06T03:58:54.745Z,0.00
2018-09-06T03:59:54.920Z,0.00
2018-09-06T04:00:55.099Z,0.00
2018-09-06T04:01:55.275Z,0.00
2018-09-06T04:02:55.455Z,0.00
2018-09-06T04:03:55.629Z,0.00
2018-09-06T04:04:55.816Z,0.00
2018-09-06T04:05:55.997Z,0.00
2018-09-06T04:06:56.169Z,0.00
2018-09-06T04:07:56.350Z,0.00
2018-09-06T04:08:56.530Z,0.00
2018-09-06T04:09:56.706Z,0.00
2018-09-06T04:10:56.886Z,0.00
2018-09-06T04:11:57.065Z,0.00
2018-09-06T04:12:57.239Z,0.00
2018-09-06T04:14:16.354Z,0.00
2018-09-06T04:14:57.598Z,0.00
2018-09-06T04:15:58.632Z,0.00
2018-09-06T04:16:57.950Z,0.00
2018-09-06T04:17:58.145Z,0.00
2018-09-06T04:18:58.305Z,0.00
2018-09-06T04:19:58.488Z,0.00
2018-09-06T04:20:58.678Z,0.00
2018-09-06T04:21:58.846Z,0.00
2018-09-06T04:22:59.029Z,0.00
2018-09-06T04:23:59.212Z,0.00
2018-09-06T04:24:59.386Z,0.00
2018-09-06T04:25:59.579Z,0.00
2018-09-06T04:26:59.740Z,0.00
2018-09-06T04:27:59.917Z,0.00
2018-09-06T04:29:00.106Z,0.00
2018-09-06T04:30:00.525Z,0.00
2018-09-06T04:31:00.449Z,0.00
2018-09-06T04:32:00.627Z,0.00
2018-09-06T04:33:00.810Z,5.63
2018-09-06T04:34:00.972Z,5.63
2018-09-06T04:35:01.160Z,5.63
2018-09-06T04:36:01.376Z,5.63
2018-09-06T04:37:01.516Z,5.63
2018-09-06T04:38:01.691Z,5.63
2018-09-06T04:39:01.867Z,5.63
2018-09-06T04:40:02.285Z,11.25
2018-09-06T04:41:02.228Z,11.25
2018-09-06T04:42:02.412Z,11.25
2018-09-06T04:43:02.609Z,11.25
2018-09-06T04:44:02.749Z,11.25
2018-09-06T04:45:02.937Z,11.25
2018-09-06T04:46:03.110Z,16.88
2018-09-06T04:47:03.310Z,16.88
2018-09-06T04:48:03.478Z,16.88
2018-09-06T04:49:03.645Z,22.50
2018-09-06T04:50:04.087Z,22.50
2018-09-06T04:51:04.004Z,28.13
2018-09-06T04:52:04.220Z,28.13
2018-09-06T04:54:04.534Z,33.75
2018-09-06T04:55:04.734Z,39.38
2018-09-06T04:56:04.891Z,39.38
2018-09-06T04:57:05.067Z,45.00
2018-09-06T04:58:05.248Z,50.63
2018-09-06T04:59:05.423Z,50.63
2018-09-06T05:00:05.602Z,56.25
2018-09-06T05:01:05.777Z,61.88
2018-09-06T05:02:05.965Z,61.88
2018-09-06T05:03:06.144Z,67.50
2018-09-06T05:04:06.379Z,73.13
2018-09-06T05:05:06.496Z,78.75
2018-09-06T05:06:06.686Z,84.38
2018-09-06T05:07:06.853Z,90.00
2018-09-06T05:08:07.039Z,90.00
2018-09-06T05:09:07.229Z,95.63
2018-09-06T05:10:07.401Z,101.25
2018-09-06T05:11:07.553Z,106.88
2018-09-06T05:12:07.723Z,112.50
2018-09-06T05:13:07.911Z,118.13
2018-09-06T05:14:08.097Z,123.75
2018-09-06T05:15:08.264Z,129.38
2018-09-06T05:16:08.441Z,135.00
2018-09-06T05:17:08.620Z,140.63
2018-09-06T05:18:08.800Z,146.25
2018-09-06T05:19:08.974Z,151.88
2018-09-06T05:20:09.153Z,157.50
2018-09-06T05:21:09.326Z,163.13
2018-09-06T05:22:09.546Z,168.75
2018-09-06T05:23:09.677Z,174.38
2018-09-06T05:24:09.853Z,180.00
2018-09-06T05:25:10.025Z,191.25
2018-09-06T05:26:10.213Z,196.88
2018-09-06T05:27:10.376Z,202.50
2018-09-06T05:28:10.561Z,208.13
2018-09-06T05:29:10.733Z,213.75
2018-09-06T05:30:10.908Z,219.38
2018-09-06T05:31:11.095Z,219.38
2018-09-06T05:32:11.268Z,225.00
2018-09-06T05:33:11.449Z,230.63
2018-09-06T05:34:11.625Z,236.25
2018-09-06T05:35:11.901Z,236.25
2018-09-06T05:36:12.070Z,236.25
2018-09-06T05:37:12.398Z,247.50
2018-09-06T05:38:12.331Z,253.13
2018-09-06T05:39:12.542Z,258.75
2018-09-06T05:41:12.848Z,298.13
2018-09-06T05:42:13.018Z,461.25
2018-09-06T05:43:13.210Z,630.00
2018-09-06T05:44:13.372Z,680.63
2018-09-06T05:45:13.543Z,708.75
2018-09-06T05:46:13.730Z,720.00
2018-09-06T05:47:14.145Z,748.13
2018-09-06T05:48:14.070Z,765.00
2018-09-06T05:49:14.261Z,781.88
2018-09-06T05:50:14.429Z,815.63
2018-09-06T05:51:14.603Z,838.13
2018-09-06T05:52:14.782Z,843.75
2018-09-06T05:53:14.950Z,860.63
2018-09-06T05:54:15.139Z,871.88
2018-09-06T05:55:15.308Z,888.75
2018-09-06T05:56:15.477Z,871.88
2018-09-06T05:57:15.730Z,877.50
2018-09-06T05:58:15.895Z,922.50
2018-09-06T05:59:16.009Z,967.50
2018-09-06T06:00:16.273Z,973.13
2018-09-06T06:01:16.379Z,990.00
2018-09-06T06:02:16.600Z,1012.50
2018-09-06T06:03:16.779Z,1040.63
2018-09-06T06:04:16.942Z,1051.88
2018-09-06T06:05:17.165Z,1051.88
2018-09-06T06:06:17.307Z,1068.75
2018-09-06T06:07:17.479Z,1091.25
2018-09-06T06:08:17.658Z,1136.25
2018-09-06T06:09:17.843Z,1170.00
2018-09-06T06:10:18.021Z,1175.63
2018-09-06T06:11:18.187Z,1181.25
2018-09-06T06:12:18.383Z,1181.25
2018-09-06T06:13:18.526Z,1181.25
2018-09-06T06:14:18.724Z,1192.50
2018-09-06T06:15:18.899Z,1231.88
2018-09-06T06:16:19.094Z,1243.13
2018-09-06T06:17:19.259Z,1243.13
2018-09-06T06:18:19.476Z,1248.75
2018-09-06T06:19:19.611Z,1226.25
2018-09-06T06:20:19.789Z,1192.50
2018-09-06T06:21:19.984Z,1175.63
2018-09-06T06:22:20.155Z,1175.63
2018-09-06T06:23:20.334Z,1057.50
2018-09-06T06:24:20.761Z,776.25
2018-09-06T06:25:20.715Z,568.13
2018-09-06T06:26:20.884Z,641.25
2018-09-06T06:27:21.088Z,545.63
2018-09-06T06:28:21.243Z,675.00
2018-09-06T06:29:21.432Z,1057.50
2018-09-06T06:30:21.609Z,961.88
2018-09-06T06:31:22.064Z,1074.38
2018-09-06T06:32:22.087Z,1074.38
2018-09-06T06:33:22.177Z,680.63
2018-09-06T06:34:22.346Z,748.13
2018-09-06T06:35:22.530Z,759.38
2018-09-06T06:36:22.711Z,765.00
2018-09-06T06:37:22.902Z,849.38
2018-09-06T06:38:23.083Z,1096.88
2018-09-06T06:39:23.253Z,1096.88
2018-09-06T06:40:23.427Z,905.63
2018-09-06T06:41:23.616Z,1181.25
2018-09-06T06:42:23.815Z,1293.75
2018-09-06T06:43:23.974Z,1276.88
2018-09-06T06:44:24.230Z,1271.25
2018-09-06T06:45:24.322Z,1299.38
2018-09-06T06:46:24.515Z,1316.25
2018-09-06T06:47:24.698Z,1338.75
2018-09-06T06:48:24.864Z,1068.75
2018-09-06T06:49:25.047Z,680.63
2018-09-06T06:50:25.286Z,1080.00
2018-09-06T06:51:25.422Z,939.38
2018-09-06T06:52:25.597Z,855.00
2018-09-06T06:53:25.796Z,630.00
2018-09-06T06:54:25.961Z,551.25
2018-09-06T06:55:26.149Z,562.50
2018-09-06T06:56:26.325Z,669.38
2018-09-06T06:57:26.501Z,1080.00
2018-09-06T06:58:26.736Z,973.13
2018-09-06T06:59:26.886Z,1001.25
2018-09-06T07:00:27.066Z,922.50
2018-09-06T07:01:27.269Z,787.50
2018-09-06T07:02:27.442Z,810.00
2018-09-06T07:03:27.637Z,933.75
2018-09-06T07:04:27.886Z,1023.75
2018-09-06T07:05:28.245Z,871.88
2018-09-06T07:06:28.171Z,646.88
2018-09-06T07:07:28.382Z,500.63
2018-09-06T07:08:28.545Z,500.63
2018-09-06T07:09:28.714Z,506.25
2018-09-06T07:10:28.906Z,511.88
2018-09-06T07:11:29.085Z,523.13
2018-09-06T07:12:29.246Z,568.13
2018-09-06T07:13:29.396Z,635.63
2018-09-06T07:14:29.561Z,871.88
2018-09-06T07:15:29.733Z,1158.75
2018-09-06T07:16:29.901Z,1192.50
2018-09-06T07:17:30.086Z,1243.13
2018-09-06T07:18:30.291Z,1237.50
2018-09-06T07:19:30.446Z,1203.75
2018-09-06T07:20:30.592Z,1170.00
2018-09-06T07:21:30.818Z,1175.63
2018-09-06T07:22:31.015Z,1164.38
2018-09-06T07:23:31.186Z,1153.13
2018-09-06T07:24:31.405Z,1186.88
2018-09-06T07:25:31.579Z,1226.25
2018-09-06T07:26:31.720Z,1231.88
2018-09-06T07:27:31.894Z,1237.50
2018-09-06T07:28:32.340Z,1237.50
2018-09-06T07:29:32.330Z,1220.63
2018-09-06T07:30:32.580Z,1215.00
2018-09-06T07:31:32.690Z,1198.13
2018-09-06T07:32:32.858Z,1226.25
2018-09-06T07:33:33.032Z,1226.25
2018-09-06T07:34:33.260Z,1203.75
2018-09-06T07:35:33.425Z,1186.88
2018-09-06T07:36:33.608Z,1175.63
2018-09-06T07:37:33.792Z,1181.25
2018-09-06T07:38:33.952Z,1175.63
2018-09-06T07:39:34.130Z,1175.63
2018-09-06T07:40:34.320Z,1035.00
2018-09-06T07:41:34.505Z,1096.88
2018-09-06T07:43:34.880Z,1080.00
2018-09-06T07:44:35.063Z,1147.50
2018-09-06T07:45:35.234Z,1125.00
2018-09-06T07:46:35.408Z,1113.75
2018-09-06T07:47:35.591Z,1057.50
2018-09-06T07:48:35.740Z,1046.25
2018-09-06T07:49:36.025Z,1035.00
2018-09-06T07:50:36.148Z,1001.25
2018-09-06T07:51:36.377Z,984.38
2018-09-06T07:52:36.490Z,978.75
2018-09-06T07:53:36.645Z,978.75
2018-09-06T07:54:36.855Z,956.25
2018-09-06T07:55:36.995Z,950.63
2018-09-06T07:56:37.176Z,933.75
2018-09-06T07:57:37.362Z,928.13
2018-09-06T07:58:37.578Z,911.25
2018-09-06T07:59:37.726Z,900.00
2018-09-06T08:00:37.972Z,905.63
2018-09-06T08:01:38.136Z,894.38
2018-09-06T08:02:38.256Z,883.13
2018-09-06T08:03:38.482Z,877.50
2018-09-06T08:04:38.626Z,877.50
2018-09-06T08:05:38.781Z,883.13
2018-09-06T08:06:38.960Z,877.50
2018-09-06T08:07:39.151Z,871.88
2018-09-06T08:08:39.328Z,860.63
2018-09-06T08:09:39.497Z,860.63
2018-09-06T08:10:39.675Z,860.63
2018-09-06T08:11:39.871Z,849.38
2018-09-06T08:12:40.072Z,843.75
2018-09-06T08:13:40.241Z,821.25
2018-09-06T08:14:40.405Z,815.63
2018-09-06T08:15:40.633Z,832.50
2018-09-06T08:16:40.924Z,866.25
2018-09-06T08:17:41.028Z,871.88
2018-09-06T08:18:41.297Z,883.13
2018-09-06T08:19:42.583Z,900.00
2018-09-06T08:20:41.610Z,905.63
2018-09-06T08:21:41.803Z,916.88
2018-09-06T08:22:42.003Z,922.50
2018-09-06T08:23:42.209Z,911.25
2018-09-06T08:24:42.402Z,900.00
2018-09-06T08:25:42.588Z,877.50
2018-09-06T08:26:42.900Z,849.38
2018-09-06T08:27:42.894Z,866.25
2018-09-06T08:28:43.164Z,871.88
2018-09-06T08:29:43.273Z,905.63
2018-09-06T08:30:43.511Z,888.75
2018-09-06T08:31:43.647Z,900.00
2018-09-06T08:32:43.811Z,888.75
2018-09-06T08:33:43.990Z,888.75
2018-09-06T08:34:44.158Z,900.00
2018-09-06T08:35:44.379Z,894.38
2018-09-06T08:36:44.514Z,888.75
2018-09-06T08:37:44.680Z,871.88
2018-09-06T08:38:44.889Z,855.00
2018-09-06T08:39:45.045Z,832.50
2018-09-06T08:40:45.191Z,804.38
2018-09-06T08:41:45.363Z,821.25
2018-09-06T08:43:45.711Z,731.25
2018-09-06T08:44:45.912Z,753.75
2018-09-06T08:45:46.091Z,731.25
2018-09-06T08:46:46.272Z,697.50
2018-09-06T08:47:46.468Z,607.50
2018-09-06T08:48:46.652Z,630.00
2018-09-06T08:49:46.825Z,731.25
2018-09-06T08:50:47.024Z,748.13
2018-09-06T08:51:47.202Z,770.63
2018-09-06T08:52:47.365Z,877.50
2018-09-06T08:53:47.567Z,905.63
2018-09-06T08:54:47.749Z,967.50
2018-09-06T08:55:47.935Z,978.75
2018-09-06T08:56:48.116Z,1001.25
2018-09-06T08:57:48.366Z,1046.25
2018-09-06T08:58:48.497Z,1119.38
2018-09-06T08:59:48.659Z,1040.63
2018-09-06T09:00:48.839Z,1158.75
2018-09-06T09:01:49.020Z,1175.63
2018-09-06T09:02:49.329Z,1361.25
2018-09-06T09:03:49.364Z,1344.38
2018-09-06T09:04:49.553Z,1350.00
2018-09-06T09:05:49.806Z,1316.25
2018-09-06T09:06:49.888Z,1310.63
2018-09-06T09:07:50.085Z,1260.00
2018-09-06T09:08:50.696Z,1063.13
2018-09-06T09:09:57.330Z,1018.13
2018-09-06T09:10:50.602Z,967.50
2018-09-06T09:11:50.777Z,978.75
2018-09-06T09:12:50.998Z,967.50
2018-09-06T09:13:51.132Z,1018.13
2018-09-06T09:14:51.316Z,1029.38
2018-09-06T09:15:51.519Z,1035.00
2018-09-06T09:16:51.711Z,1018.13
2018-09-06T09:17:51.881Z,945.00
2018-09-06T09:18:52.074Z,916.88
2018-09-06T09:19:52.270Z,866.25
2018-09-06T09:20:52.455Z,804.38
2018-09-06T09:21:52.959Z,725.63
2018-09-06T09:22:52.846Z,669.38
2018-09-06T09:23:53.067Z,624.38
2018-09-06T09:24:53.311Z,613.13
2018-09-06T09:25:53.410Z,613.13
2018-09-06T09:26:53.592Z,568.13
2018-09-06T09:27:53.781Z,495.00
2018-09-06T09:28:54.018Z,568.13
2018-09-06T09:29:54.163Z,556.88
2018-09-06T09:30:54.340Z,568.13
2018-09-06T09:31:54.539Z,540.00
2018-09-06T09:32:54.747Z,596.25
2018-09-06T09:33:54.932Z,573.75
2018-09-06T09:34:55.159Z,601.88
2018-09-06T09:35:55.417Z,630.00
2018-09-06T09:36:55.544Z,669.38
2018-09-06T09:37:55.757Z,714.38
2018-09-06T09:38:56.010Z,725.63
2018-09-06T09:39:56.136Z,731.25
2018-09-06T09:40:56.408Z,736.88
2018-09-06T09:41:56.506Z,742.50
2018-09-06T09:42:56.709Z,759.38
2018-09-06T09:43:56.804Z,770.63
2018-09-06T09:44:57.009Z,736.88
2018-09-06T09:47:57.609Z,703.13
2018-09-06T09:48:57.833Z,731.25
2018-09-06T09:49:58.033Z,703.13
2018-09-06T09:50:58.174Z,697.50
2018-09-06T09:51:58.374Z,686.25
2018-09-06T09:52:58.563Z,641.25
2018-09-06T09:53:58.732Z,641.25
2018-09-06T09:54:58.971Z,630.00
2018-09-06T09:55:59.139Z,613.13
2018-09-06T09:56:59.413Z,618.75
2018-09-06T09:57:59.476Z,596.25
2018-09-06T09:58:59.639Z,579.38
2018-09-06T09:59:59.828Z,540.00
2018-09-06T10:01:00.017Z,495.00
2018-09-06T10:02:00.204Z,478.13
2018-09-06T10:03:00.390Z,461.25
2018-09-06T10:04:00.688Z,483.75
2018-09-06T10:05:00.721Z,568.13
2018-09-06T10:06:00.899Z,590.63
2018-09-06T10:07:01.145Z,607.50
2018-09-06T10:08:01.303Z,613.13
2018-09-06T10:09:01.499Z,596.25
2018-09-06T10:10:01.662Z,613.13
2018-09-06T10:11:01.895Z,618.75
2018-09-06T10:12:02.060Z,630.00
2018-09-06T10:13:02.283Z,624.38
2018-09-06T10:14:02.466Z,630.00
2018-09-06T10:15:02.742Z,624.38
2018-09-06T10:16:02.919Z,618.75
2018-09-06T10:17:03.068Z,641.25
2018-09-06T10:18:03.283Z,618.75
2018-09-06T10:19:03.400Z,556.88
2018-09-06T10:20:03.705Z,551.25
2018-09-06T10:21:03.746Z,551.25
2018-09-06T10:22:03.940Z,540.00
2018-09-06T10:23:04.141Z,511.88
2018-09-06T10:24:04.384Z,444.38
2018-09-06T10:25:04.544Z,433.13
2018-09-06T10:26:04.725Z,438.75
2018-09-06T10:27:04.905Z,444.38
2018-09-06T10:28:05.091Z,455.63
2018-09-06T10:29:05.321Z,433.13
2018-09-06T10:30:05.541Z,438.75
2018-09-06T10:31:05.683Z,438.75
2018-09-06T10:32:05.842Z,444.38
2018-09-06T10:33:06.083Z,455.63
2018-09-06T10:34:06.211Z,450.00
2018-09-06T10:35:06.437Z,450.00
2018-09-06T10:36:06.663Z,433.13
2018-09-06T10:37:06.796Z,433.13
2018-09-06T10:38:06.966Z,427.50
2018-09-06T10:39:07.148Z,399.38
2018-09-06T10:40:07.358Z,405.00
2018-09-06T10:41:07.603Z,450.00
2018-09-06T10:42:07.743Z,444.38
2018-09-06T10:43:07.920Z,433.13
2018-09-06T10:44:08.123Z,433.13
2018-09-06T10:45:08.314Z,421.88
2018-09-06T10:46:08.523Z,444.38
2018-09-06T10:47:08.702Z,466.88
2018-09-06T10:48:09.099Z,483.75
2018-09-06T10:49:09.003Z,506.25
2018-09-06T10:50:09.175Z,500.63
2018-09-06T10:51:09.348Z,489.38
2018-09-06T10:52:09.534Z,495.00
2018-09-06T10:53:09.703Z,489.38
2018-09-06T10:54:09.902Z,495.00
2018-09-06T10:55:10.073Z,483.75
2018-09-06T10:56:10.259Z,472.50
2018-09-06T10:57:10.434Z,461.25
2018-09-06T10:58:10.613Z,461.25
2018-09-06T10:59:11.069Z,438.75
2018-09-06T11:00:11.024Z,427.50
2018-09-06T11:01:11.203Z,416.25
2018-09-06T11:02:11.403Z,410.63
2018-09-06T11:03:11.575Z,405.00
2018-09-06T11:04:11.791Z,427.50
2018-09-06T11:05:12.032Z,444.38
2018-09-06T11:06:12.074Z,438.75
2018-09-06T11:07:12.240Z,438.75
2018-09-06T11:08:12.483Z,433.13
2018-09-06T11:09:12.650Z,427.50
2018-09-06T11:10:12.824Z,433.13
2018-09-06T11:11:13.016Z,433.13
2018-09-06T11:12:13.212Z,433.13
2018-09-06T11:13:13.385Z,438.75
2018-09-06T11:14:13.551Z,438.75
2018-09-06T11:15:13.739Z,438.75
2018-09-06T11:16:13.927Z,438.75
2018-09-06T11:17:14.081Z,450.00
2018-09-06T11:18:14.264Z,450.00
2018-09-06T11:19:14.509Z,444.38
2018-09-06T11:22:15.233Z,444.38
2018-09-06T11:23:15.181Z,450.00
2018-09-06T11:24:15.391Z,444.38
2018-09-06T11:25:15.549Z,438.75
2018-09-06T11:26:15.719Z,416.25
2018-09-06T11:27:15.907Z,416.25
2018-09-06T11:28:16.093Z,410.63
2018-09-06T11:30:16.450Z,393.75
2018-09-06T11:31:16.652Z,393.75
2018-09-06T11:32:16.844Z,388.13
2018-09-06T11:33:17.069Z,382.50
2018-09-06T11:34:17.215Z,371.25
2018-09-06T11:35:17.433Z,365.63
2018-09-06T11:36:17.579Z,354.38
2018-09-06T11:37:17.781Z,320.63
2018-09-06T11:38:17.951Z,303.75
2018-09-06T11:39:18.146Z,292.50
2018-09-06T11:41:18.567Z,270.00
2018-09-06T11:42:18.711Z,258.75
2018-09-06T11:43:18.916Z,247.50
2018-09-06T11:44:19.054Z,236.25
2018-09-06T11:45:19.236Z,230.63
2018-09-06T11:46:19.421Z,225.00
2018-09-06T11:47:19.700Z,208.13
2018-09-06T11:49:19.980Z,185.63
2018-09-06T11:50:20.207Z,174.38
2018-09-06T11:51:20.348Z,168.75
2018-09-06T11:52:20.511Z,157.50
2018-09-06T11:53:20.712Z,151.88
2018-09-06T11:54:20.871Z,140.63
2018-09-06T11:55:21.073Z,129.38
2018-09-06T11:56:21.237Z,118.13
2018-09-06T11:57:21.397Z,106.88
2018-09-06T11:58:21.573Z,106.88
2018-09-06T11:59:21.757Z,101.25
2018-09-06T12:00:21.921Z,95.63
2018-09-06T12:01:22.104Z,90.00
2018-09-06T12:02:22.327Z,84.38
2018-09-06T12:03:22.517Z,78.75
2018-09-06T12:04:22.681Z,78.75
2018-09-06T12:05:22.931Z,78.75
2018-09-06T12:06:23.030Z,73.13
2018-09-06T12:07:23.221Z,73.13
2018-09-06T12:08:24.327Z,73.13
2018-09-06T12:09:23.616Z,73.13
2018-09-06T12:10:23.785Z,73.13
2018-09-06T12:11:24.014Z,73.13
2018-09-06T12:12:24.128Z,73.13
2018-09-06T12:13:24.311Z,73.13
2018-09-06T12:14:24.890Z,73.13
2018-09-06T12:15:24.693Z,67.50
2018-09-06T12:16:24.892Z,67.50
2018-09-06T12:17:25.069Z,67.50
2018-09-06T12:18:25.240Z,67.50
2018-09-06T12:19:25.546Z,61.88
2018-09-06T12:20:25.670Z,61.88
2018-09-06T12:21:25.852Z,61.88
2018-09-06T12:22:26.008Z,56.25
2018-09-06T12:23:26.206Z,56.25
2018-09-06T12:24:26.389Z,56.25
2018-09-06T12:25:26.675Z,56.25
2018-09-06T12:26:26.767Z,61.88
2018-09-06T12:27:26.944Z,61.88
2018-09-06T12:28:27.165Z,61.88
2018-09-06T12:29:27.256Z,61.88
2018-09-06T12:30:27.405Z,61.88
2018-09-06T12:31:27.636Z,61.88
2018-09-06T12:32:27.778Z,61.88
2018-09-06T12:33:27.968Z,61.88
2018-09-06T12:34:29.381Z,61.88
2018-09-06T12:35:28.292Z,61.88
2018-09-06T12:36:28.477Z,61.88
2018-09-06T12:37:28.653Z,61.88
2018-09-06T12:38:28.855Z,67.50
2018-09-06T12:39:29.031Z,67.50
2018-09-06T12:40:29.183Z,67.50
2018-09-06T12:41:29.352Z,61.88
2018-09-06T12:42:29.531Z,67.50
2018-09-06T12:43:29.689Z,67.50
2018-09-06T12:44:30.002Z,67.50
2018-09-06T12:45:30.087Z,67.50
2018-09-06T12:46:30.283Z,67.50
2018-09-06T12:47:30.434Z,67.50
2018-09-06T12:48:30.612Z,61.88
2018-09-06T12:49:30.845Z,61.88
2018-09-06T12:50:30.962Z,56.25
2018-09-06T12:51:31.159Z,56.25
2018-09-06T12:52:31.308Z,56.25
2018-09-06T12:53:31.496Z,50.63
2018-09-06T12:54:31.675Z,50.63
2018-09-06T12:55:31.867Z,50.63
2018-09-06T12:56:32.078Z,50.63
2018-09-06T12:57:32.206Z,50.63
2018-09-06T12:58:32.336Z,50.63
2018-09-06T12:59:32.529Z,56.25
2018-09-06T13:00:32.704Z,56.25
2018-09-06T13:01:32.874Z,56.25